CVD weather

Redland Hospital Helicopter Landing Site
Cleveland, Queensland, Australia

Public forecast

Using degrees Celsius for public forecast. Weather courtesy of forecast.io.

METAR (pilot weather report)

Closest report is Brisbane International Airport, 11.8 nm (21.9 km) NW. Retrieved 2019/04/20 12:00 UTC (49 seconds ago):

YBBN 201200Z 13006KT 9999 FEW040 BKN060 23/20 Q1021 INTER 1200/1500 3000 SHRA BKN012

TAF (pilot weather forecast)

Closest forecast is Brisbane International Airport, 11.8 nm (21.9 km) NW. Retrieved 2019/04/20 12:00 UTC (49 seconds ago):

TAF YBBN 201113Z 2012/2118 17008KT 9999 -SHRA SCT015 BKN025 BKN040 FM210000 12014KT 9999 NSW SCT025 FM211000 17008KT 9999 -SHRA SCT025 SCT040 INTER 2012/2024 3000 SHRA BKN012 INTER 2114/2118 3000 SHRA BKN012